White Pigeon, Iowa
Current Conditions -  °F | °C
As of 4:15 AM on Saturday 22 Nov 2014 (Local Time) from KOOA Reporting Station
Haze Haze  
Wind Chill: 31°   Ceiling: 500
Heat Index: 36°   Visibility: 2.5mi
Dew Point: 35°   Wind: 7mph
Humidity: 95%   Direction: 180°S
Pressure: 29.97"   Gusts: NA
Location:  41.5522°N, 92.1189°W
Report Text: KOOA 221015Z AUTO 18006KT 2 1/2SM BR OVC005 02/02 A2997 RMK AO2 T00230016
Loading
Personal Weather Stations






























Interactive Weather Map New forecast layout! Learn more

10-Day Weather Forecast

Advertisements
Track Severe Weather on mobile